createdAt,value
2023-05-13T00:04:44.867Z,54.60
2023-05-13T00:09:47.577Z,54.92
2023-05-13T00:14:50.293Z,55.19
2023-05-13T00:19:53.151Z,55.77
2023-05-13T00:24:55.915Z,56.00
2023-05-13T00:29:59.856Z,56.38
2023-05-13T00:35:02.605Z,56.62
2023-05-13T00:40:16.646Z,56.93
2023-05-13T00:45:19.396Z,57.09
2023-05-13T00:50:22.504Z,56.87
2023-05-13T00:55:25.736Z,57.39
2023-05-13T01:00:31.308Z,57.76
2023-05-13T01:05:52.892Z,57.82
2023-05-13T01:11:01.852Z,57.98
2023-05-13T01:16:11.965Z,58.34
2023-05-13T01:21:14.725Z,58.63
2023-05-13T01:26:17.417Z,58.94
2023-05-13T01:31:21.452Z,59.16
2023-05-13T01:36:24.827Z,59.69
2023-05-13T01:41:27.567Z,59.98
2023-05-13T01:46:30.745Z,60.40
2023-05-13T01:51:33.919Z,60.91
2023-05-13T01:56:36.650Z,61.54
2023-05-13T02:01:40.598Z,62.17
2023-05-13T02:06:43.546Z,62.69
2023-05-13T02:11:46.472Z,63.14
2023-05-13T02:16:49.497Z,63.14
2023-05-13T02:21:53.923Z,63.39
2023-05-13T02:26:56.646Z,63.34
2023-05-13T02:31:59.770Z,63.41
2023-05-13T02:37:06.648Z,63.41
2023-05-13T02:42:09.344Z,63.34
2023-05-13T02:47:12.037Z,63.42
2023-05-13T02:52:14.871Z,63.59
2023-05-13T02:57:17.582Z,63.86
2023-05-13T03:02:21.104Z,64.03
2023-05-13T03:07:24.759Z,63.97
2023-05-13T03:12:27.469Z,64.41
2023-05-13T03:17:32.058Z,64.34
2023-05-13T03:22:38.766Z,64.49
2023-05-13T03:27:41.529Z,64.86
2023-05-13T03:32:44.341Z,65.08
2023-05-13T03:37:47.297Z,65.24
2023-05-13T03:42:50.003Z,65.76
2023-05-13T03:47:52.784Z,65.93
2023-05-13T03:52:56.715Z,66.20
2023-05-13T03:57:59.402Z,66.54
2023-05-13T04:03:02.109Z,66.52
2023-05-13T04:08:05.096Z,66.84
2023-05-13T04:13:08.921Z,66.97
2023-05-13T04:18:11.592Z,67.28
2023-05-13T04:23:14.438Z,67.11
2023-05-13T04:28:18.556Z,66.93
2023-05-13T04:33:21.279Z,66.84
2023-05-13T04:38:23.971Z,66.91
2023-05-13T04:43:27.369Z,66.78
2023-05-13T04:48:30.330Z,66.58
2023-05-13T04:53:33.929Z,66.32
2023-05-13T04:58:36.624Z,66.22
2023-05-13T05:03:39.370Z,66.11
2023-05-13T05:08:42.086Z,65.96
2023-05-13T05:13:45.606Z,65.65
2023-05-13T05:18:48.503Z,65.39
2023-05-13T05:23:51.409Z,64.38
2023-05-13T05:28:54.510Z,63.75
2023-05-13T05:33:59.134Z,63.01
2023-05-13T05:39:02.361Z,62.82
2023-05-13T05:44:05.300Z,62.09
2023-05-13T05:49:08.473Z,61.72
2023-05-13T05:54:11.935Z,61.31
2023-05-13T05:59:14.667Z,60.80
2023-05-13T06:04:17.568Z,60.30
2023-05-13T06:09:20.425Z,59.53
2023-05-13T06:14:23.171Z,58.75
2023-05-13T06:19:25.874Z,58.26
2023-05-13T06:24:28.763Z,56.99
2023-05-13T06:29:31.625Z,56.22
2023-05-13T06:34:34.538Z,54.99
2023-05-13T06:39:38.177Z,54.11
2023-05-13T06:44:41.003Z,52.74
2023-05-13T06:49:44.195Z,51.47
2023-05-13T06:54:47.234Z,50.10
2023-05-13T06:59:50.141Z,48.53
2023-05-13T07:04:54.024Z,47.59
2023-05-13T07:09:57.384Z,46.52
2023-05-13T07:15:00.201Z,45.76
2023-05-13T07:20:03.010Z,45.05
2023-05-13T07:25:06.317Z,43.72
2023-05-13T07:30:11.326Z,42.98
2023-05-13T07:35:16.797Z,42.02
2023-05-13T07:40:21.101Z,40.91
2023-05-13T07:45:24.470Z,39.70
2023-05-13T07:50:27.545Z,37.93
2023-05-13T07:55:30.457Z,35.87
2023-05-13T08:00:33.338Z,35.87
2023-05-13T08:05:36.124Z,35.45
2023-05-13T08:10:38.885Z,34.19
2023-05-13T08:15:41.846Z,32.94
2023-05-13T08:20:44.593Z,31.55
2023-05-13T08:25:47.968Z,30.99
2023-05-13T08:30:51.377Z,29.75
2023-05-13T08:35:54.625Z,29.90
2023-05-13T08:41:00.230Z,29.33
2023-05-13T08:46:09.355Z,28.85
2023-05-13T08:51:12.893Z,28.72
2023-05-13T08:56:16.212Z,27.14
2023-05-13T09:01:19.238Z,25.90
2023-05-13T09:06:22.152Z,26.63
2023-05-13T09:11:26.728Z,25.86
2023-05-13T09:16:32.900Z,25.56
2023-05-13T09:21:38.089Z,25.79
2023-05-13T09:26:42.289Z,24.85
2023-05-13T09:31:46.989Z,24.00
2023-05-13T09:36:58.216Z,24.34
2023-05-13T09:42:04.484Z,24.72
2023-05-13T09:47:12.014Z,24.63
2023-05-13T09:52:17.131Z,24.24
2023-05-13T09:57:21.306Z,24.30
2023-05-13T10:02:25.159Z,24.24
2023-05-13T10:07:29.139Z,24.14
2023-05-13T10:12:33.875Z,24.43
2023-05-13T10:17:36.968Z,23.79
2023-05-13T10:22:40.848Z,22.76
2023-05-13T10:27:43.805Z,23.42
2023-05-13T10:32:46.576Z,23.34
2023-05-13T10:38:32.485Z,22.85
2023-05-13T10:43:36.365Z,22.67
2023-05-13T10:48:41.096Z,21.94
2023-05-13T10:53:55.844Z,21.73
2023-05-13T10:59:06.146Z,22.33
2023-05-13T11:04:14.592Z,22.55
2023-05-13T11:09:20.399Z,23.00
2023-05-13T11:14:25.584Z,22.58
2023-05-13T11:19:30.694Z,22.14
2023-05-13T11:24:33.433Z,22.11
2023-05-13T11:29:37.449Z,22.58
2023-05-13T11:34:51.527Z,22.14
2023-05-13T11:39:54.222Z,22.33
2023-05-13T11:44:57.574Z,22.92
2023-05-13T11:50:00.382Z,23.04
2023-05-13T11:55:03.895Z,23.16
2023-05-13T12:00:12.013Z,22.58
2023-05-13T12:05:14.953Z,22.49
2023-05-13T12:10:17.913Z,22.18
2023-05-13T12:15:22.232Z,21.91
2023-05-13T12:20:25.622Z,21.81
2023-05-13T12:25:32.889Z,21.61
2023-05-13T12:30:41.436Z,21.84
2023-05-13T12:35:46.850Z,20.34
2023-05-13T12:40:50.706Z,19.90
2023-05-13T12:45:54.864Z,20.88
2023-05-13T12:50:58.783Z,21.01
2023-05-13T12:56:03.445Z,21.02
2023-05-13T13:01:06.345Z,20.83
2023-05-13T13:06:10.455Z,20.44
2023-05-13T13:11:18.548Z,20.39
2023-05-13T13:16:22.113Z,20.04
2023-05-13T13:21:25.057Z,19.96
2023-05-13T13:26:27.817Z,20.08
2023-05-13T13:31:30.618Z,20.01
2023-05-13T13:36:33.473Z,20.72
2023-05-13T13:41:36.322Z,20.71
2023-05-13T13:46:39.330Z,20.45
2023-05-13T13:51:42.140Z,20.57
2023-05-13T13:56:44.863Z,20.40
2023-05-13T14:01:47.713Z,20.43
2023-05-13T14:06:52.526Z,20.33
2023-05-13T14:11:55.329Z,22.98
2023-05-13T14:17:00.318Z,24.61
2023-05-13T14:22:03.355Z,25.57
2023-05-13T14:27:06.107Z,25.34
2023-05-13T14:32:08.925Z,25.30
2023-05-13T14:37:12.058Z,25.16
2023-05-13T14:42:15.727Z,23.33
2023-05-13T14:47:18.733Z,22.63
2023-05-13T14:52:21.539Z,22.55
2023-05-13T14:57:24.400Z,23.10
2023-05-13T15:02:27.308Z,22.93
2023-05-13T15:07:30.556Z,24.49
2023-05-13T15:12:33.252Z,24.63
2023-05-13T15:17:36.417Z,24.01
2023-05-13T15:22:39.249Z,24.16
2023-05-13T15:27:43.050Z,25.20
2023-05-13T15:32:48.087Z,26.08
2023-05-13T15:37:52.048Z,26.15
2023-05-13T15:42:55.783Z,25.79
2023-05-13T15:47:58.905Z,25.96
2023-05-13T15:53:01.907Z,26.37
2023-05-13T15:58:05.468Z,26.64
2023-05-13T16:03:09.244Z,26.92
2023-05-13T16:08:13.000Z,27.33
2023-05-13T16:13:15.724Z,27.86
2023-05-13T16:18:19.016Z,28.14
2023-05-13T16:23:21.968Z,28.82
2023-05-13T16:28:24.744Z,29.13
2023-05-13T16:33:28.242Z,29.23
2023-05-13T16:38:31.044Z,29.38
2023-05-13T16:43:33.842Z,28.96
2023-05-13T16:48:37.203Z,29.08
2023-05-13T16:53:39.988Z,30.54
2023-05-13T16:58:42.728Z,30.68
2023-05-13T17:03:45.548Z,30.55
2023-05-13T17:08:48.465Z,30.85
2023-05-13T17:13:51.237Z,31.25
2023-05-13T17:18:54.044Z,31.68
2023-05-13T17:23:56.805Z,32.17
2023-05-13T17:28:59.959Z,32.67
2023-05-13T17:34:02.709Z,33.02
2023-05-13T17:39:06.883Z,33.31
2023-05-13T17:44:09.697Z,33.59
2023-05-13T17:49:12.471Z,33.88
2023-05-13T17:54:15.617Z,34.48
2023-05-13T17:59:18.751Z,34.85
2023-05-13T18:04:21.566Z,35.11
2023-05-13T18:09:24.258Z,35.42
2023-05-13T18:14:27.010Z,35.69
2023-05-13T18:19:29.702Z,35.97
2023-05-13T18:24:32.406Z,36.43
2023-05-13T18:29:35.571Z,36.89
2023-05-13T18:34:38.344Z,37.32
2023-05-13T18:39:41.690Z,37.75
2023-05-13T18:44:44.822Z,38.38
2023-05-13T18:49:47.609Z,38.76
2023-05-13T18:54:50.391Z,39.31
2023-05-13T18:59:53.261Z,39.66
2023-05-13T19:04:56.055Z,40.22
2023-05-13T19:09:58.811Z,41.25
2023-05-13T19:15:01.545Z,42.09
2023-05-13T19:20:04.692Z,42.54
2023-05-13T19:25:07.704Z,42.96
2023-05-13T19:30:11.238Z,42.85
2023-05-13T19:35:14.140Z,42.99
2023-05-13T19:40:18.053Z,43.35
2023-05-13T19:45:21.394Z,43.84
2023-05-13T19:50:24.423Z,43.95
2023-05-13T19:55:27.770Z,44.21
2023-05-13T20:00:30.572Z,44.25
2023-05-13T20:05:33.361Z,44.55
2023-05-13T20:10:36.840Z,44.69
2023-05-13T20:15:40.179Z,44.86
2023-05-13T20:20:42.918Z,45.51
2023-05-13T20:25:48.379Z,45.74
2023-05-13T20:30:55.696Z,46.17
2023-05-13T20:35:58.610Z,46.50
2023-05-13T20:41:01.356Z,46.78
2023-05-13T20:46:09.270Z,47.19
2023-05-13T20:51:12.492Z,47.78
2023-05-13T20:56:15.625Z,48.34
2023-05-13T21:01:18.952Z,48.78
2023-05-13T21:06:21.718Z,49.35
2023-05-13T21:11:25.113Z,49.58
2023-05-13T21:16:28.710Z,50.36
2023-05-13T21:21:32.220Z,51.13
2023-05-13T21:26:36.013Z,51.23
2023-05-13T21:31:38.913Z,51.91
2023-05-13T21:36:42.181Z,51.97
2023-05-13T21:41:45.486Z,52.41
2023-05-13T21:46:48.343Z,53.09
2023-05-13T21:51:51.509Z,53.55
2023-05-13T21:56:54.209Z,53.98
2023-05-13T22:01:57.035Z,54.68
2023-05-13T22:07:01.447Z,54.40
2023-05-13T22:12:04.855Z,54.95
2023-05-13T22:17:10.306Z,54.93
2023-05-13T22:22:13.609Z,55.32
2023-05-13T22:27:17.057Z,55.93
2023-05-13T22:32:19.773Z,56.31
2023-05-13T22:37:22.485Z,56.88
2023-05-13T22:42:25.899Z,57.61
2023-05-13T22:47:28.737Z,58.16
2023-05-13T22:52:31.480Z,58.39
2023-05-13T22:57:34.197Z,58.80
2023-05-13T23:02:36.943Z,59.13
2023-05-13T23:07:39.714Z,59.47
2023-05-13T23:12:42.432Z,59.87
2023-05-13T23:17:45.658Z,59.96
2023-05-13T23:22:48.373Z,60.43
2023-05-13T23:27:51.396Z,60.49
2023-05-13T23:32:54.248Z,60.91
2023-05-13T23:37:57.547Z,60.86
2023-05-13T23:43:01.114Z,61.43
2023-05-13T23:48:04.296Z,62.23
2023-05-13T23:53:07.065Z,62.53
2023-05-13T23:58:09.793Z,62.96
